Athboy, South Dakota
Current Conditions -  °F | °C
As of 3:53 PM on Saturday 25 Oct 2014 (Local Time) from KHEI Reporting Station
Clear Clear  
Wind Chill: 64°   Ceiling: Unl
Heat Index: 64°   Visibility: 10mi
Dew Point: 30°   Wind: 14mph
Humidity: 28%   Direction: 140°SE
Pressure: 30"   Gusts: NA
Location:  45.2919°N, 102.298°W
Report Text: KHEI 252153Z AUTO 14012KT 10SM CLR 18/M01 A3000 RMK AO2 SLP163 T01781011
Loading
Personal Weather Stations






























Interactive Weather Map New forecast layout! Learn more

10-Day Weather Forecast

Advertisements
Track Severe Weather on mobile